createdAt,value
2023-05-17T00:01:56.214Z,10.30
2023-05-17T00:04:24.447Z,10.40
2023-05-17T00:06:52.667Z,10.30
2023-05-17T00:09:20.850Z,10.80
2023-05-17T00:11:48.970Z,10.40
2023-05-17T00:14:17.116Z,10.40
2023-05-17T00:16:46.818Z,10.30
2023-05-17T00:19:15.080Z,10.20
2023-05-17T00:21:43.297Z,10.30
2023-05-17T00:24:11.626Z,11.50
2023-05-17T00:26:39.953Z,10.20
2023-05-17T00:29:08.211Z,10.20
2023-05-17T00:31:36.401Z,10.40
2023-05-17T00:34:06.285Z,10.10
2023-05-17T00:36:34.446Z,10.10
2023-05-17T00:39:02.820Z,10.00
2023-05-17T00:41:31.198Z,9.90
2023-05-17T00:44:00.775Z,9.80
2023-05-17T00:46:29.040Z,9.70
2023-05-17T00:48:57.624Z,10.10
2023-05-17T00:51:27.325Z,9.80
2023-05-17T00:53:56.217Z,10.00
2023-05-17T00:56:25.430Z,9.80
2023-05-17T00:58:54.937Z,9.20
2023-05-17T01:01:23.230Z,10.00
2023-05-17T01:03:51.949Z,9.70
2023-05-17T01:06:20.783Z,9.70
2023-05-17T01:08:50.724Z,10.00
2023-05-17T01:11:29.614Z,9.70
2023-05-17T01:14:03.850Z,9.60
2023-05-17T01:16:38.064Z,9.60
2023-05-17T01:19:23.558Z,9.80
2023-05-17T01:22:04.989Z,9.60
2023-05-17T01:24:46.806Z,9.50
2023-05-17T01:27:17.907Z,9.50
2023-05-17T01:29:47.071Z,9.70
2023-05-17T01:32:16.589Z,9.60
2023-05-17T01:34:44.751Z,9.40
2023-05-17T01:37:13.028Z,9.30
2023-05-17T01:39:41.915Z,9.40
2023-05-17T01:42:26.582Z,9.30
2023-05-17T01:45:04.533Z,9.30
2023-05-17T01:47:44.868Z,9.40
2023-05-17T01:50:16.056Z,9.40
2023-05-17T01:52:51.328Z,9.30
2023-05-17T01:55:27.361Z,9.30
2023-05-17T01:57:58.218Z,9.40
2023-05-17T02:00:28.106Z,9.30
2023-05-17T02:02:56.589Z,9.30
2023-05-17T02:05:24.866Z,9.30
2023-05-17T02:07:53.047Z,9.30
2023-05-17T02:10:21.641Z,9.10
2023-05-17T02:12:49.972Z,9.20
2023-05-17T02:15:19.757Z,9.40
2023-05-17T02:17:48.020Z,9.10
2023-05-17T02:20:16.333Z,9.10
2023-05-17T02:22:44.685Z,9.20
2023-05-17T02:25:13.153Z,9.00
2023-05-17T02:27:41.350Z,9.10
2023-05-17T02:30:10.363Z,9.10
2023-05-17T02:32:40.198Z,8.90
2023-05-17T02:35:09.452Z,8.90
2023-05-17T02:37:37.678Z,8.90
2023-05-17T02:40:09.721Z,8.80
2023-05-17T02:42:38.388Z,8.80
2023-05-17T02:45:07.417Z,8.70
2023-05-17T02:47:35.805Z,8.70
2023-05-17T02:50:06.550Z,8.70
2023-05-17T02:52:34.808Z,8.70
2023-05-17T02:55:03.095Z,9.00
2023-05-17T02:57:31.551Z,9.20
2023-05-17T02:59:59.902Z,8.60
2023-05-17T03:02:28.400Z,8.50
2023-05-17T03:04:56.906Z,8.50
2023-05-17T03:07:26.818Z,8.60
2023-05-17T03:09:55.040Z,8.40
2023-05-17T03:12:23.327Z,8.60
2023-05-17T03:14:51.848Z,8.40
2023-05-17T03:17:19.925Z,8.40
2023-05-17T03:19:48.029Z,8.40
2023-05-17T03:22:16.097Z,8.40
2023-05-17T03:24:45.738Z,8.40
2023-05-17T03:27:13.825Z,8.30
2023-05-17T03:29:41.841Z,8.30
2023-05-17T03:32:10.053Z,8.30
2023-05-17T03:34:38.060Z,8.30
2023-05-17T03:37:06.480Z,8.30
2023-05-17T03:39:34.506Z,8.30
2023-05-17T03:42:04.003Z,8.50
2023-05-17T03:44:32.105Z,8.40
2023-05-17T03:47:00.160Z,8.50
2023-05-17T03:49:28.152Z,8.50
2023-05-17T03:51:56.389Z,8.50
2023-05-17T03:54:24.433Z,8.60
2023-05-17T03:56:52.445Z,8.60
2023-05-17T03:59:21.793Z,8.80
2023-05-17T04:01:49.770Z,8.80
2023-05-17T04:04:17.847Z,9.00
2023-05-17T04:06:45.956Z,9.40
2023-05-17T04:09:15.589Z,9.70
2023-05-17T04:11:43.939Z,10.30
2023-05-17T04:14:12.069Z,10.80
2023-05-17T04:16:41.524Z,11.70
2023-05-17T04:19:09.593Z,12.50
2023-05-17T04:21:37.739Z,13.40
2023-05-17T04:24:06.251Z,14.60
2023-05-17T04:26:34.578Z,15.30
2023-05-17T04:29:02.671Z,16.10
2023-05-17T04:31:32.683Z,16.80
2023-05-17T04:34:02.645Z,17.50
2023-05-17T04:36:31.108Z,18.30
2023-05-17T04:38:59.119Z,18.90
2023-05-17T04:41:27.513Z,19.40
2023-05-17T04:43:55.755Z,20.00
2023-05-17T04:46:23.753Z,20.60
2023-05-17T04:48:52.018Z,21.10
2023-05-17T04:51:21.520Z,21.40
2023-05-17T04:53:49.747Z,21.50
2023-05-17T04:56:17.728Z,21.20
2023-05-17T04:58:45.782Z,20.50
2023-05-17T05:01:13.906Z,19.20
2023-05-17T05:03:42.262Z,18.00
2023-05-17T05:06:10.322Z,16.90
2023-05-17T05:08:39.742Z,16.20
2023-05-17T05:11:07.729Z,15.70
2023-05-17T05:13:38.320Z,15.20
2023-05-17T05:16:07.463Z,15.00
2023-05-17T05:18:35.762Z,14.90
2023-05-17T05:21:04.191Z,14.90
2023-05-17T05:23:32.247Z,15.20
2023-05-17T05:26:01.596Z,15.70
2023-05-17T05:28:29.833Z,16.00
2023-05-17T05:31:01.261Z,16.40
2023-05-17T05:33:29.336Z,16.50
2023-05-17T05:35:57.448Z,16.80
2023-05-17T05:38:25.468Z,16.90
2023-05-17T05:40:53.557Z,17.10
2023-05-17T05:43:22.906Z,17.20
2023-05-17T05:45:51.049Z,17.50
2023-05-17T05:48:19.213Z,17.60
2023-05-17T05:50:47.349Z,17.80
2023-05-17T05:53:19.449Z,17.80
2023-05-17T05:55:49.462Z,17.80
2023-05-17T05:58:17.541Z,17.50
2023-05-17T06:00:46.992Z,17.50
2023-05-17T06:03:15.563Z,17.60
2023-05-17T06:05:43.760Z,17.70
2023-05-17T06:08:11.923Z,18.10
2023-05-17T06:10:39.889Z,18.30
2023-05-17T06:13:08.004Z,18.60
2023-05-17T06:15:36.120Z,18.90
2023-05-17T06:18:06.057Z,19.30
2023-05-17T06:20:36.874Z,19.60
2023-05-17T06:23:05.265Z,19.50
2023-05-17T06:25:36.305Z,19.40
2023-05-17T06:28:05.025Z,19.30
2023-05-17T06:30:33.308Z,19.40
2023-05-17T06:33:01.540Z,19.60
2023-05-17T06:35:37.498Z,19.70
2023-05-17T06:38:12.375Z,20.00
2023-05-17T06:40:40.623Z,20.10
2023-05-17T06:43:09.162Z,20.00
2023-05-17T06:45:37.199Z,19.90
2023-05-17T06:48:05.423Z,19.70
2023-05-17T06:50:34.841Z,19.50
2023-05-17T06:53:02.990Z,19.30
2023-05-17T06:55:31.818Z,19.00
2023-05-17T06:58:00.704Z,19.10
2023-05-17T07:00:29.125Z,19.30
2023-05-17T07:02:57.430Z,19.60
2023-05-17T07:05:25.506Z,20.10
2023-05-17T07:07:54.882Z,20.40
2023-05-17T07:10:23.257Z,20.80
2023-05-17T07:12:51.417Z,20.80
2023-05-17T07:15:19.622Z,20.90
2023-05-17T07:17:47.684Z,20.90
2023-05-17T07:20:15.871Z,20.90
2023-05-17T07:22:46.249Z,21.10
2023-05-17T07:25:18.099Z,21.40
2023-05-17T07:27:46.044Z,21.90
2023-05-17T07:30:16.818Z,22.20
2023-05-17T07:32:45.181Z,22.30
2023-05-17T07:35:13.400Z,22.50
2023-05-17T07:37:41.662Z,22.60
2023-05-17T07:40:11.190Z,22.90
2023-05-17T07:42:40.433Z,23.10
2023-05-17T07:45:09.935Z,22.90
2023-05-17T07:47:38.020Z,22.60
2023-05-17T07:50:07.058Z,22.70
2023-05-17T07:52:34.972Z,22.90
2023-05-17T07:55:03.985Z,23.20
2023-05-17T07:57:33.096Z,23.30
2023-05-17T08:00:02.479Z,23.40
2023-05-17T08:02:30.383Z,23.40
2023-05-17T08:04:58.756Z,23.50
2023-05-17T08:07:26.819Z,23.60
2023-05-17T08:09:54.834Z,23.80
2023-05-17T08:12:22.836Z,23.90
2023-05-17T08:14:50.807Z,23.90
2023-05-17T08:17:20.203Z,24.00
2023-05-17T08:19:51.165Z,23.90
2023-05-17T08:22:19.258Z,23.80
2023-05-17T08:24:47.727Z,23.50
2023-05-17T08:27:16.026Z,23.50
2023-05-17T08:29:44.040Z,23.50
2023-05-17T08:32:12.161Z,23.30
2023-05-17T08:34:41.450Z,22.80
2023-05-17T08:37:10.097Z,22.40
2023-05-17T08:39:38.217Z,21.90
2023-05-17T08:42:09.144Z,21.30
2023-05-17T08:44:38.737Z,20.90
2023-05-17T08:47:12.036Z,20.90
2023-05-17T08:49:42.217Z,21.00
2023-05-17T08:52:11.172Z,20.90
2023-05-17T08:54:39.332Z,21.10
2023-05-17T08:57:07.813Z,21.10
2023-05-17T08:59:36.948Z,20.70
2023-05-17T09:02:07.336Z,20.40
2023-05-17T09:04:35.490Z,20.00
2023-05-17T09:07:05.482Z,19.70
2023-05-17T09:09:34.192Z,19.30
2023-05-17T09:12:03.385Z,18.90
2023-05-17T09:14:35.905Z,18.60
2023-05-17T09:17:03.951Z,18.30
2023-05-17T09:19:32.660Z,18.10
2023-05-17T09:22:02.588Z,18.00
2023-05-17T09:24:32.066Z,18.00
2023-05-17T09:27:03.848Z,18.20
2023-05-17T09:29:33.211Z,18.30
2023-05-17T09:32:13.889Z,18.30
2023-05-17T09:34:42.646Z,18.10
2023-05-17T09:37:21.125Z,17.90
2023-05-17T09:39:50.749Z,17.70
2023-05-17T09:42:29.400Z,17.50
2023-05-17T09:44:58.554Z,17.50
2023-05-17T09:47:28.526Z,17.40
2023-05-17T09:50:00.495Z,17.60
2023-05-17T09:52:31.921Z,17.90
2023-05-17T09:55:02.461Z,18.20
2023-05-17T09:57:38.807Z,18.10
2023-05-17T10:00:11.475Z,18.20
2023-05-17T10:02:41.200Z,18.30
2023-05-17T10:05:12.931Z,18.40
2023-05-17T10:07:42.165Z,18.20
2023-05-17T10:10:12.444Z,17.90
2023-05-17T10:12:42.628Z,17.70
2023-05-17T10:15:12.304Z,17.40
2023-05-17T10:17:43.994Z,17.20
2023-05-17T10:20:15.510Z,17.00
2023-05-17T10:22:44.338Z,16.80
2023-05-17T10:25:14.664Z,16.60
2023-05-17T10:27:42.982Z,16.50
2023-05-17T10:30:12.724Z,16.50
2023-05-17T10:32:41.388Z,16.50
2023-05-17T10:35:12.235Z,16.60
2023-05-17T10:37:41.546Z,16.80
2023-05-17T10:40:13.508Z,17.00
2023-05-17T10:42:45.827Z,17.10
2023-05-17T10:45:13.963Z,17.30
2023-05-17T10:47:42.670Z,17.30
2023-05-17T10:50:14.960Z,17.20
2023-05-17T10:52:48.708Z,17.10
2023-05-17T10:55:20.800Z,17.10
2023-05-17T10:58:14.566Z,17.00
2023-05-17T11:00:44.213Z,16.90
2023-05-17T11:03:13.987Z,16.80
2023-05-17T11:05:44.660Z,16.70
2023-05-17T11:08:19.268Z,16.60
2023-05-17T11:11:10.144Z,16.60
2023-05-17T11:13:47.608Z,16.70
2023-05-17T11:16:18.108Z,16.70
2023-05-17T11:18:50.917Z,16.70
2023-05-17T11:21:20.169Z,16.70
2023-05-17T11:23:49.847Z,16.80
2023-05-17T11:26:22.207Z,16.80
2023-05-17T11:29:01.460Z,16.80
2023-05-17T11:31:33.476Z,16.80
2023-05-17T11:34:01.745Z,17.00
2023-05-17T11:36:30.065Z,17.10
2023-05-17T11:39:21.606Z,17.00
2023-05-17T11:41:51.450Z,17.00
2023-05-17T11:44:26.968Z,17.00
2023-05-17T11:47:02.495Z,16.80
2023-05-17T11:49:36.389Z,17.10
2023-05-17T11:52:06.140Z,17.20
2023-05-17T11:54:35.105Z,17.30
2023-05-17T11:57:04.664Z,17.30
2023-05-17T11:59:40.406Z,17.30
2023-05-17T12:02:08.701Z,17.30
2023-05-17T12:04:38.768Z,17.20
2023-05-17T12:07:09.613Z,17.20
2023-05-17T12:09:39.651Z,17.30
2023-05-17T12:12:08.703Z,17.50
2023-05-17T12:14:36.859Z,17.60
2023-05-17T12:17:10.179Z,17.60
2023-05-17T12:19:38.319Z,17.60
2023-05-17T12:22:12.767Z,17.70
2023-05-17T12:24:42.425Z,17.70
2023-05-17T12:27:11.096Z,17.90
2023-05-17T12:29:39.820Z,18.10
2023-05-17T12:32:10.888Z,18.10
2023-05-17T12:34:39.378Z,18.20
2023-05-17T12:37:10.481Z,18.50
2023-05-17T12:39:39.180Z,18.40
2023-05-17T12:42:08.284Z,18.30
2023-05-17T12:44:37.205Z,18.20
2023-05-17T12:47:05.267Z,18.00
2023-05-17T12:49:39.173Z,17.90
2023-05-17T12:52:07.720Z,17.70
2023-05-17T12:54:35.660Z,17.50
2023-05-17T12:57:12.967Z,17.40
2023-05-17T12:59:48.801Z,17.30
2023-05-17T13:02:17.768Z,17.20
2023-05-17T13:04:47.544Z,17.10
2023-05-17T13:07:22.815Z,16.90
2023-05-17T13:09:50.759Z,16.70
2023-05-17T13:12:23.369Z,16.50
2023-05-17T13:14:54.789Z,16.50
2023-05-17T13:17:27.084Z,16.50
2023-05-17T13:19:58.034Z,16.40
2023-05-17T13:22:29.368Z,16.40
2023-05-17T13:24:57.282Z,16.50
2023-05-17T13:27:25.265Z,16.60
2023-05-17T13:29:53.382Z,16.80
2023-05-17T13:32:22.442Z,17.00
2023-05-17T13:34:50.556Z,17.10
2023-05-17T13:37:21.229Z,17.10
2023-05-17T13:39:49.597Z,17.10
2023-05-17T13:42:17.651Z,17.00
2023-05-17T13:44:45.879Z,17.00
2023-05-17T13:47:14.206Z,17.00
2023-05-17T13:49:42.251Z,16.90
2023-05-17T13:52:12.406Z,16.80
2023-05-17T13:54:41.805Z,16.80
2023-05-17T13:57:09.740Z,16.80
2023-05-17T13:59:37.717Z,17.00
2023-05-17T14:02:05.728Z,17.10
2023-05-17T14:04:34.388Z,17.30
2023-05-17T14:07:03.367Z,17.60
2023-05-17T14:09:33.853Z,17.90
2023-05-17T14:12:03.363Z,18.00
2023-05-17T14:14:31.860Z,18.10
2023-05-17T14:17:01.428Z,18.30
2023-05-17T14:19:29.703Z,18.20
2023-05-17T14:21:57.655Z,18.20
2023-05-17T14:24:25.853Z,18.10
2023-05-17T14:26:53.835Z,18.20
2023-05-17T14:29:23.104Z,18.20
2023-05-17T14:31:51.202Z,18.20
2023-05-17T14:34:20.169Z,18.20
2023-05-17T14:36:48.399Z,18.20
2023-05-17T14:39:16.438Z,17.80
2023-05-17T14:41:45.105Z,18.20
2023-05-17T14:44:13.209Z,18.10
2023-05-17T14:46:42.496Z,18.30
2023-05-17T14:49:10.498Z,18.50
2023-05-17T14:51:38.478Z,18.50
2023-05-17T14:54:06.982Z,18.70
2023-05-17T14:56:35.308Z,18.70
2023-05-17T14:59:03.635Z,18.70
2023-05-17T15:01:31.737Z,18.70
2023-05-17T15:04:01.189Z,18.60
2023-05-17T15:06:30.252Z,18.60
2023-05-17T15:08:58.592Z,18.60
2023-05-17T15:11:26.599Z,18.70
2023-05-17T15:13:54.731Z,18.70
2023-05-17T15:16:23.049Z,18.80
2023-05-17T15:18:52.527Z,18.80
2023-05-17T15:21:22.811Z,18.70
2023-05-17T15:23:51.206Z,18.50
2023-05-17T15:26:19.267Z,18.60
2023-05-17T15:28:49.799Z,18.70
2023-05-17T15:31:17.950Z,18.80
2023-05-17T15:33:45.986Z,18.90
2023-05-17T15:36:16.293Z,19.10
2023-05-17T15:38:46.029Z,19.10
2023-05-17T15:41:15.935Z,19.00
2023-05-17T15:43:44.312Z,18.90
2023-05-17T15:46:12.858Z,18.80
2023-05-17T15:48:41.052Z,18.70
2023-05-17T15:51:09.173Z,18.50
2023-05-17T15:53:37.104Z,18.50
2023-05-17T15:56:07.192Z,18.40
2023-05-17T15:58:35.583Z,18.30
2023-05-17T16:01:04.640Z,18.20
2023-05-17T16:03:32.599Z,18.20
2023-05-17T16:06:00.747Z,18.20
2023-05-17T16:08:28.770Z,18.40
2023-05-17T16:10:56.671Z,18.30
2023-05-17T16:13:26.812Z,18.30
2023-05-17T16:15:55.444Z,18.40
2023-05-17T16:18:23.559Z,18.40
2023-05-17T16:20:59.120Z,18.30
2023-05-17T16:23:27.362Z,18.20
2023-05-17T16:25:56.099Z,18.00
2023-05-17T16:28:25.618Z,17.80
2023-05-17T16:30:54.370Z,17.80
2023-05-17T16:33:22.493Z,17.90
2023-05-17T16:35:51.362Z,17.70
2023-05-17T16:38:21.016Z,17.70
2023-05-17T16:40:49.098Z,17.70
2023-05-17T16:43:17.068Z,17.70
2023-05-17T16:45:46.778Z,17.60
2023-05-17T16:48:15.553Z,17.50
2023-05-17T16:50:43.930Z,17.40
2023-05-17T16:53:12.288Z,17.40
2023-05-17T16:55:40.315Z,17.30
2023-05-17T16:58:08.220Z,17.20
2023-05-17T17:00:36.244Z,17.30
2023-05-17T17:03:08.999Z,17.30
2023-05-17T17:05:37.819Z,17.30
2023-05-17T17:08:05.746Z,17.20
2023-05-17T17:10:35.915Z,17.10
2023-05-17T17:13:03.903Z,16.90
2023-05-17T17:15:31.888Z,16.80
2023-05-17T17:17:59.898Z,16.70
2023-05-17T17:20:29.497Z,16.70
2023-05-17T17:22:57.601Z,16.50
2023-05-17T17:25:25.835Z,16.40
2023-05-17T17:27:53.787Z,16.10
2023-05-17T17:30:21.752Z,16.30
2023-05-17T17:32:49.947Z,15.80
2023-05-17T17:35:18.076Z,15.90
2023-05-17T17:37:47.459Z,15.80
2023-05-17T17:40:15.556Z,15.90
2023-05-17T17:42:43.475Z,15.80
2023-05-17T17:45:11.659Z,16.00
2023-05-17T17:47:39.778Z,15.80
2023-05-17T17:50:09.053Z,15.80
2023-05-17T17:52:37.310Z,15.70
2023-05-17T17:55:08.234Z,15.70
2023-05-17T17:57:36.271Z,15.60
2023-05-17T18:00:04.522Z,15.60
2023-05-17T18:02:32.471Z,15.50
2023-05-17T18:05:00.613Z,15.50
2023-05-17T18:07:28.738Z,15.50
2023-05-17T18:09:57.005Z,15.40
2023-05-17T18:12:27.153Z,15.30
2023-05-17T18:14:55.490Z,15.20
2023-05-17T18:17:23.497Z,15.40
2023-05-17T18:19:51.432Z,15.10
2023-05-17T18:22:19.360Z,15.10
2023-05-17T18:24:47.302Z,15.00
2023-05-17T18:27:15.254Z,15.00
2023-05-17T18:29:44.770Z,15.00
2023-05-17T18:32:12.833Z,14.90
2023-05-17T18:34:41.043Z,14.70
2023-05-17T18:37:09.027Z,14.60
2023-05-17T18:39:36.996Z,14.60
2023-05-17T18:42:05.277Z,14.40
2023-05-17T18:44:34.840Z,14.40
2023-05-17T18:47:04.382Z,14.40
2023-05-17T18:49:32.453Z,14.30
2023-05-17T18:52:00.524Z,14.30
2023-05-17T18:54:28.473Z,14.20
2023-05-17T18:56:56.556Z,14.10
2023-05-17T18:59:24.567Z,14.00
2023-05-17T19:01:52.780Z,14.00
2023-05-17T19:04:22.707Z,13.90
2023-05-17T19:06:50.861Z,14.10
2023-05-17T19:09:18.871Z,13.80
2023-05-17T19:11:46.917Z,13.80
2023-05-17T19:14:15.817Z,13.70
2023-05-17T19:16:43.825Z,13.70
2023-05-17T19:19:11.826Z,13.70
2023-05-17T19:21:41.121Z,13.70
2023-05-17T19:24:09.314Z,13.70
2023-05-17T19:26:37.281Z,13.70
2023-05-17T19:29:05.282Z,13.60
2023-05-17T19:31:33.466Z,13.70
2023-05-17T19:34:01.766Z,13.70
2023-05-17T19:36:29.621Z,13.50
2023-05-17T19:38:58.969Z,13.50
2023-05-17T19:41:27.302Z,13.40
2023-05-17T19:43:55.276Z,13.40
2023-05-17T19:46:23.217Z,13.40
2023-05-17T19:48:51.469Z,13.30
2023-05-17T19:51:19.409Z,13.30
2023-05-17T19:53:53.385Z,13.30
2023-05-17T19:56:24.470Z,13.20
2023-05-17T19:58:52.818Z,13.20
2023-05-17T20:01:21.436Z,13.20
2023-05-17T20:03:49.543Z,13.10
2023-05-17T20:06:17.565Z,13.10
2023-05-17T20:08:46.880Z,13.20
2023-05-17T20:11:15.423Z,13.00
2023-05-17T20:13:44.732Z,13.00
2023-05-17T20:16:13.641Z,12.90
2023-05-17T20:18:45.146Z,12.90
2023-05-17T20:21:15.409Z,12.80
2023-05-17T20:23:43.469Z,12.70
2023-05-17T20:26:16.181Z,12.70
2023-05-17T20:28:46.035Z,12.60
2023-05-17T20:31:14.600Z,12.60
2023-05-17T20:33:44.217Z,12.60
2023-05-17T20:36:14.223Z,12.50
2023-05-17T20:38:42.314Z,12.50
2023-05-17T20:41:11.170Z,12.40
2023-05-17T20:43:45.291Z,12.40
2023-05-17T20:46:15.384Z,12.40
2023-05-17T20:48:46.061Z,12.40
2023-05-17T20:51:14.150Z,12.30
2023-05-17T20:53:42.103Z,12.30
2023-05-17T20:56:10.504Z,12.50
2023-05-17T20:58:38.519Z,12.20
2023-05-17T21:01:07.725Z,12.10
2023-05-17T21:03:40.107Z,12.10
2023-05-17T21:06:10.939Z,12.00
2023-05-17T21:08:39.528Z,11.90
2023-05-17T21:11:07.453Z,11.90
2023-05-17T21:13:35.830Z,11.80
2023-05-17T21:16:04.012Z,11.70
2023-05-17T21:18:32.113Z,11.70
2023-05-17T21:21:01.719Z,11.60
2023-05-17T21:23:29.682Z,11.60
2023-05-17T21:25:57.632Z,11.50
2023-05-17T21:28:25.696Z,11.50
2023-05-17T21:30:53.975Z,11.40
2023-05-17T21:33:21.926Z,11.40
2023-05-17T21:35:49.828Z,11.40
2023-05-17T21:38:19.192Z,11.30
2023-05-17T21:40:47.192Z,11.30
2023-05-17T21:43:15.301Z,11.30
2023-05-17T21:45:43.273Z,11.30
2023-05-17T21:48:11.305Z,11.30
2023-05-17T21:50:39.327Z,11.20
2023-05-17T21:53:07.213Z,11.20
2023-05-17T21:55:56.394Z,11.10
2023-05-17T21:58:24.650Z,11.10
2023-05-17T22:00:53.352Z,11.10
2023-05-17T22:03:21.509Z,11.00
2023-05-17T22:05:49.597Z,11.00
2023-05-17T22:08:17.561Z,10.90
2023-05-17T22:10:47.564Z,10.90
2023-05-17T22:13:18.121Z,10.80
2023-05-17T22:15:46.352Z,11.20
2023-05-17T22:18:14.380Z,10.80
2023-05-17T22:20:42.544Z,10.90
2023-05-17T22:23:10.503Z,10.70
2023-05-17T22:25:38.672Z,10.70
2023-05-17T22:28:08.155Z,10.70
2023-05-17T22:30:36.089Z,10.60
2023-05-17T22:33:04.267Z,10.80
2023-05-17T22:35:32.286Z,10.60
2023-05-17T22:38:00.228Z,10.50
2023-05-17T22:40:28.516Z,10.50
2023-05-17T22:43:00.317Z,10.40
2023-05-17T22:45:33.097Z,10.40
2023-05-17T22:48:03.131Z,10.30
2023-05-17T22:50:34.638Z,10.80
2023-05-17T22:53:02.665Z,10.20
2023-05-17T22:55:31.063Z,10.20
2023-05-17T22:57:59.616Z,10.10
2023-05-17T23:00:29.191Z,10.10
2023-05-17T23:02:57.142Z,10.10
2023-05-17T23:05:25.332Z,10.10
2023-05-17T23:07:53.532Z,10.00
2023-05-17T23:10:21.646Z,10.00
2023-05-17T23:12:52.774Z,9.90
2023-05-17T23:15:20.863Z,9.90
2023-05-17T23:17:50.933Z,9.90
2023-05-17T23:20:20.037Z,9.90
2023-05-17T23:22:48.632Z,10.00
2023-05-17T23:25:16.745Z,9.70
2023-05-17T23:27:45.175Z,9.60
2023-05-17T23:30:13.599Z,9.60
2023-05-17T23:32:42.392Z,9.60
2023-05-17T23:35:11.787Z,9.60
2023-05-17T23:37:40.122Z,9.60
2023-05-17T23:40:09.484Z,9.60
2023-05-17T23:42:37.425Z,9.60
2023-05-17T23:45:06.415Z,9.50
2023-05-17T23:47:34.858Z,9.50
2023-05-17T23:50:03.923Z,9.50
2023-05-17T23:52:33.220Z,9.50
2023-05-17T23:55:01.635Z,9.50
2023-05-17T23:57:29.739Z,9.70
2023-05-17T23:59:57.700Z,9.50
